Time;durP1;ratioP1;P1;durP2;ratioP2;P2;SDS_P1;SDS_P2;PMS_P1;PMS_P2;Temp;Humidity;BMP_temperature;BMP_pressure;BME280_temperature;BME280_humidity;BME280_pressure;Samples;Min_cycle;Max_cycle;Signal;HPM_P1;HPM_P2
2022/03/19 00:02:01;;;;;;;21.33;6.38;;;;;;;8.20;80.75;104397.53;5013705;28;20034;-76
2022/03/19 00:04:26;;;;;;;21.58;5.80;;;;;;;8.15;80.83;104395.09;5029721;28;20392;-76
2022/03/19 00:06:52;;;;;;;21.85;5.30;;;;;;;8.12;80.96;104389.88;5037038;28;20044;-75
2022/03/19 00:09:17;;;;;;;28.50;6.45;;;;;;;8.12;80.87;104390.75;5021894;28;20116;-78
2022/03/19 00:11:43;;;;;;;27.77;5.50;;;;;;;8.05;80.98;104392.00;5032495;28;20046;-75
2022/03/19 00:14:12;;;;;;;30.23;5.97;;;;;;;8.03;81.38;104393.91;5028488;28;20488;-77
2022/03/19 00:16:38;;;;;;;23.02;6.03;;;;;;;8.01;81.42;104405.66;5035426;28;20430;-77
2022/03/19 00:19:03;;;;;;;21.33;5.60;;;;;;;8.00;81.57;104402.09;5040767;28;20508;-76
2022/03/19 00:21:29;;;;;;;31.23;7.63;;;;;;;7.97;81.45;104404.94;5032402;28;20065;-76
2022/03/19 00:23:54;;;;;;;27.08;5.85;;;;;;;7.99;81.62;104403.06;5014433;28;20017;-75
2022/03/19 00:26:20;;;;;;;24.75;5.68;;;;;;;7.95;81.72;104406.81;5017370;28;20037;-76
2022/03/19 00:28:45;;;;;;;22.13;6.90;;;;;;;7.97;81.49;104406.75;5015730;28;20041;-77
2022/03/19 00:31:11;;;;;;;21.27;6.70;;;;;;;7.96;81.40;104407.72;5046996;28;20034;-78
2022/03/19 00:33:40;;;;;;;22.60;6.50;;;;;;;7.96;81.58;104410.41;5031720;28;20037;-76
2022/03/19 00:36:06;;;;;;;24.38;6.30;;;;;;;7.95;81.85;104406.81;4998718;28;20083;-76
2022/03/19 00:38:32;;;;;;;31.40;6.25;;;;;;;7.91;81.46;104407.94;4997646;28;20025;-76
2022/03/19 00:41:02;;;;;;;19.08;5.32;;;;;;;7.87;81.99;104409.91;5019367;28;20021;-77
2022/03/19 00:43:27;;;;;;;22.52;6.03;;;;;;;7.80;81.95;104413.84;5012641;28;20029;-76
2022/03/19 00:45:53;;;;;;;22.83;5.32;;;;;;;7.79;82.20;104411.22;5037152;28;20031;-76
2022/03/19 00:48:18;;;;;;;31.83;6.35;;;;;;;7.77;82.30;104410.44;5001168;28;20033;-76
2022/03/19 00:50:44;;;;;;;22.08;6.25;;;;;;;7.72;82.77;104402.63;5017098;28;20513;-75
2022/03/19 00:53:09;;;;;;;20.38;5.80;;;;;;;7.72;82.68;104404.44;5037760;28;20528;-76
2022/03/19 00:55:38;;;;;;;22.13;6.00;;;;;;;7.71;83.04;104403.56;4999113;28;20025;-77
2022/03/19 00:58:04;;;;;;;21.63;6.05;;;;;;;7.65;82.97;104404.72;5026423;28;20033;-76
2022/03/19 01:00:29;;;;;;;30.70;6.30;;;;;;;7.62;83.09;104402.19;5032220;28;20040;-78
2022/03/19 01:02:56;;;;;;;19.75;6.22;;;;;;;7.63;83.53;104397.69;5023325;28;20439;-77
2022/03/19 01:05:31;;;;;;;27.25;6.82;;;;;;;7.64;83.15;104396.78;5001055;28;20121;-77
2022/03/19 01:08:00;;;;;;;25.50;6.50;;;;;;;7.62;83.14;104401.34;5014976;28;20056;-76
2022/03/19 01:10:29;;;;;;;31.70;6.47;;;;;;;7.54;83.89;104396.34;5034821;28;20067;-76
2022/03/19 01:12:56;;;;;;;25.42;6.85;;;;;;;7.54;83.87;104401.72;5042595;28;20037;-76
2022/03/19 01:15:23;;;;;;;25.60;6.32;;;;;;;7.55;83.91;104402.56;5032168;28;20270;-76
2022/03/19 01:17:48;;;;;;;27.92;7.13;;;;;;;7.50;83.96;104400.09;5033177;28;20029;-77
2022/03/19 01:20:14;;;;;;;23.10;7.15;;;;;;;7.45;84.07;104407.50;5032911;28;20047;-77
2022/03/19 01:22:46;;;;;;;28.15;6.90;;;;;;;7.42;84.23;104391.56;5020553;28;20485;-76
2022/03/19 01:25:13;;;;;;;29.35;7.35;;;;;;;7.39;84.66;104389.03;5052570;28;20032;-75
2022/03/19 01:27:39;;;;;;;29.48;7.90;;;;;;;7.35;84.80;104384.78;5046517;28;20072;-76
2022/03/19 01:30:06;;;;;;;34.85;7.43;;;;;;;7.32;84.86;104382.25;5006621;28;20034;-76
2022/03/19 01:32:33;;;;;;;29.95;7.13;;;;;;;7.30;84.85;104392.19;5001278;28;20481;-76
2022/03/19 01:34:58;;;;;;;23.42;6.43;;;;;;;7.28;84.79;104383.34;5013533;28;20036;-76
2022/03/19 01:37:24;;;;;;;29.52;6.90;;;;;;;7.29;84.91;104383.25;5032363;28;20033;-76
2022/03/19 01:39:53;;;;;;;29.55;6.88;;;;;;;7.27;85.00;104385.16;5044899;28;20032;-76
2022/03/19 01:42:30;;;;;;;25.00;7.45;;;;;;;7.21;84.69;104377.41;5024803;28;20049;-76
2022/03/19 01:44:56;;;;;;;27.58;6.70;;;;;;;7.21;84.78;104385.44;5042973;28;20079;-76
2022/03/19 01:47:23;;;;;;;35.08;7.05;;;;;;;7.15;84.73;104383.91;5021362;28;20029;-76
2022/03/19 01:49:51;;;;;;;28.42;6.32;;;;;;;7.15;85.04;104373.19;5051323;28;20119;-77
2022/03/19 01:52:17;;;;;;;26.63;6.72;;;;;;;7.12;84.78;104368.00;5041842;28;20579;-77
2022/03/19 01:54:45;;;;;;;29.42;6.75;;;;;;;7.13;84.57;104375.06;5042305;28;20038;-77
2022/03/19 01:57:14;;;;;;;26.27;6.50;;;;;;;7.04;84.59;104370.16;5033755;28;20112;-77
2022/03/19 01:59:40;;;;;;;26.40;6.97;;;;;;;7.06;84.61;104368.28;5051404;28;20032;-77
2022/03/19 02:02:07;;;;;;;24.50;6.03;;;;;;;7.02;84.34;104369.38;5024671;28;20033;-77
2022/03/19 02:04:36;;;;;;;36.92;7.07;;;;;;;7.03;84.47;104357.72;5025740;28;20112;-76
2022/03/19 02:07:02;;;;;;;26.08;6.05;;;;;;;7.03;84.12;104363.09;5019983;28;20045;-76
2022/03/19 02:09:28;;;;;;;26.00;6.03;;;;;;;6.98;84.30;104357.06;5039065;28;20030;-77
2022/03/19 02:11:54;;;;;;;20.83;6.07;;;;;;;6.98;84.27;104365.13;5044670;28;20021;-76
2022/03/19 02:14:19;;;;;;;27.67;7.25;;;;;;;6.95;84.12;104362.56;5018089;28;20424;-77
2022/03/19 02:16:46;;;;;;;23.83;5.75;;;;;;;6.93;84.42;104356.44;5006675;28;20029;-77
2022/03/19 02:19:12;;;;;;;22.38;6.10;;;;;;;6.90;84.21;104359.22;5016796;28;20040;-78
2022/03/19 02:21:42;;;;;;;27.58;6.80;;;;;;;6.90;83.76;104353.84;5016796;28;20025;-77
2022/03/19 02:26:52;;;;;;;23.67;5.82;;;;;;;6.82;83.93;104357.78;5031985;28;20056;-78
2022/03/19 02:29:17;;;;;;;27.40;6.00;;;;;;;6.77;83.93;104346.41;5033880;28;20041;-76
2022/03/19 02:31:44;;;;;;;19.92;6.25;;;;;;;6.74;84.13;104346.56;5034334;28;20048;-76
2022/03/19 02:34:10;;;;;;;22.10;5.63;;;;;;;6.73;84.14;104352.84;5053086;28;20033;-77
2022/03/19 02:36:36;;;;;;;32.70;6.22;;;;;;;6.73;84.02;104344.81;5019548;28;20088;-75
2022/03/19 02:39:09;;;;;;;24.38;5.43;;;;;;;6.68;83.75;104348.66;5042076;28;20021;-76
2022/03/19 02:41:35;;;;;;;23.13;5.40;;;;;;;6.67;83.75;104339.75;5031566;28;20025;-76
2022/03/19 02:44:00;;;;;;;28.67;5.20;;;;;;;6.64;83.85;104334.53;5051437;28;20047;-77
2022/03/19 02:46:37;;;;;;;24.85;5.13;;;;;;;6.61;83.67;104337.38;5050260;28;20033;-76
2022/03/19 02:49:03;;;;;;;24.40;5.43;;;;;;;6.59;83.64;104336.56;5033657;28;20021;-76
2022/03/19 02:51:28;;;;;;;25.95;6.18;;;;;;;6.58;83.41;104334.81;5015960;28;20107;-76
2022/03/19 02:53:54;;;;;;;23.40;5.70;;;;;;;6.56;83.21;104332.22;5019770;28;20032;-76
2022/03/19 02:56:19;;;;;;;27.70;5.90;;;;;;;6.52;83.01;104337.75;5051852;28;20043;-77
2022/03/19 02:58:44;;;;;;;27.15;6.03;;;;;;;6.53;82.86;104331.47;5015239;28;20039;-76
2022/03/19 03:01:10;;;;;;;24.15;5.32;;;;;;;6.51;82.86;104325.34;5033515;28;20116;-76
2022/03/19 03:03:35;;;;;;;26.70;5.93;;;;;;;6.42;83.26;104325.75;5050838;28;20029;-75
2022/03/19 03:08:28;;;;;;;;;;;;;;;6.46;82.57;104325.53;5039841;28;20049;-79
2022/03/19 03:10:54;;;;;;;18.17;5.10;;;;;;;6.43;82.55;104325.69;5057926;28;19916;-79
2022/03/19 03:13:19;;;;;;;18.50;5.13;;;;;;;6.40;82.48;104335.63;5057602;28;20082;-80
2022/03/19 03:15:45;;;;;;;22.60;6.18;;;;;;;6.41;82.33;104324.00;5056269;28;20385;-79
2022/03/19 03:18:10;;;;;;;20.63;5.40;;;;;;;6.37;82.37;104318.81;5059051;28;20025;-79
2022/03/19 03:20:35;;;;;;;25.30;5.72;;;;;;;6.33;82.40;104319.00;5054450;28;20047;-79
2022/03/19 03:23:01;;;;;;;29.17;6.13;;;;;;;6.32;82.12;104318.13;5055458;28;20067;-80
2022/03/19 03:25:26;;;;;;;19.75;5.38;;;;;;;6.31;82.27;104312.84;5053125;28;20392;-79
2022/03/19 03:27:52;;;;;;;22.52;5.40;;;;;;;6.29;82.06;104307.59;5052385;28;20384;-79
2022/03/19 03:30:18;;;;;;;18.42;5.13;;;;;;;6.31;82.06;104310.16;5055670;28;20023;-80
2022/03/19 03:32:43;;;;;;;26.98;5.60;;;;;;;6.26;81.98;104318.38;5053410;28;20112;-79
2022/03/19 03:35:09;;;;;;;19.83;5.63;;;;;;;6.25;81.84;104310.47;5055141;28;20047;-79
2022/03/19 03:37:34;;;;;;;18.33;5.07;;;;;;;6.23;81.60;104306.97;5054598;28;20083;-79
2022/03/19 03:39:59;;;;;;;27.42;6.28;;;;;;;6.22;81.66;104305.25;5051059;28;20083;-79
2022/03/19 03:42:25;;;;;;;20.33;5.43;;;;;;;6.21;81.89;104307.03;5052208;28;20099;-79
2022/03/19 03:44:54;;;;;;;24.10;6.13;;;;;;;6.18;81.74;104307.16;5052813;28;20029;-78
2022/03/19 03:47:19;;;;;;;20.70;5.90;;;;;;;6.16;81.88;104319.72;5041427;28;20025;-78
2022/03/19 03:49:44;;;;;;;23.52;5.55;;;;;;;6.14;81.95;104303.78;5053101;28;20039;-79
2022/03/19 03:52:10;;;;;;;21.08;5.53;;;;;;;6.14;81.70;104313.59;5053407;28;20048;-78
2022/03/19 03:54:35;;;;;;;21.65;6.75;;;;;;;6.10;81.66;104301.28;5053831;28;20088;-80
2022/03/19 03:57:00;;;;;;;21.83;5.95;;;;;;;6.10;81.59;104295.94;5045294;28;20028;-78
2022/03/19 03:59:26;;;;;;;21.48;6.97;;;;;;;6.04;81.76;104297.09;5050257;28;20041;-78
2022/03/19 04:01:51;;;;;;;20.30;5.63;;;;;;;6.06;81.70;104284.53;5051101;28;20032;-79
2022/03/19 04:04:17;;;;;;;19.88;5.97;;;;;;;6.05;81.63;104298.81;5054014;28;20085;-79
2022/03/19 04:06:42;;;;;;;14.63;5.57;;;;;;;6.03;81.42;104295.38;5055607;28;20071;-78
2022/03/19 04:09:07;;;;;;;15.00;6.38;;;;;;;5.99;81.77;104279.50;5054261;28;20090;-79
2022/03/19 04:11:32;;;;;;;17.98;5.75;;;;;;;5.98;81.51;104296.47;5041112;28;20025;-77
2022/03/19 04:13:59;;;;;;;19.90;5.85;;;;;;;5.98;81.57;104293.81;5056514;28;20116;-79
2022/03/19 04:16:25;;;;;;;25.38;6.60;;;;;;;5.96;81.77;104293.88;5047086;28;20052;-78
2022/03/19 04:18:50;;;;;;;19.48;5.60;;;;;;;5.88;81.79;104290.66;5063915;28;20104;-78
2022/03/19 04:21:15;;;;;;;19.30;6.15;;;;;;;5.89;81.81;104297.72;5059348;28;20068;-79
2022/03/19 04:23:41;;;;;;;19.33;6.00;;;;;;;5.88;81.75;104296.84;5060746;28;20025;-78
2022/03/19 04:26:06;;;;;;;20.20;5.65;;;;;;;5.82;81.71;104291.78;5054647;28;20029;-77
2022/03/19 04:28:32;;;;;;;23.17;5.85;;;;;;;5.79;81.95;104286.53;5053728;28;20080;-78
2022/03/19 04:30:58;;;;;;;21.95;6.25;;;;;;;5.80;81.87;104293.66;5051921;28;20350;-79
2022/03/19 04:33:23;;;;;;;24.27;6.10;;;;;;;5.77;81.96;104287.56;5051527;28;20420;-79
2022/03/19 04:38:32;;;;;;;26.95;5.68;;;;;;;5.71;82.22;104288.69;5054956;28;20223;-79
2022/03/19 04:40:59;;;;;;;20.20;5.07;;;;;;;5.67;82.32;104281.75;5048182;28;20053;-80
2022/03/19 04:43:25;;;;;;;23.33;6.35;;;;;;;5.67;82.21;104287.09;5053527;28;20162;-80
2022/03/19 04:45:50;;;;;;;20.73;5.90;;;;;;;5.66;81.98;104280.00;5051344;28;20029;-79
2022/03/19 04:48:15;;;;;;;27.73;6.93;;;;;;;5.65;81.99;104280.94;5054381;28;20162;-80
2022/03/19 04:50:43;;;;;;;26.55;6.47;;;;;;;5.67;82.15;104279.06;5055233;28;20044;-79
2022/03/19 04:53:09;;;;;;;20.27;6.90;;;;;;;5.65;81.79;104273.78;5051704;28;20029;-79
2022/03/19 04:55:36;;;;;;;25.00;5.85;;;;;;;5.66;81.73;104275.53;5043179;28;20043;-77
2022/03/19 04:58:06;;;;;;;23.42;6.45;;;;;;;5.63;81.68;104272.09;5045052;28;20028;-80
2022/03/19 05:00:31;;;;;;;21.00;6.53;;;;;;;5.64;81.81;104272.06;5050753;28;20044;-79
2022/03/19 05:02:57;;;;;;;22.08;6.60;;;;;;;5.61;81.73;104273.97;5052332;28;20028;-78
2022/03/19 05:05:24;;;;;;;32.75;6.90;;;;;;;5.61;81.89;104273.97;5052686;28;20480;-78
2022/03/19 05:07:54;;;;;;;29.33;6.05;;;;;;;5.60;81.95;104274.91;5052546;28;20145;-78
2022/03/19 05:13:05;;;;;;;17.83;5.82;;;;;;;5.55;81.83;104282.25;5052919;28;20040;-79
2022/03/19 05:15:30;;;;;;;24.08;6.10;;;;;;;5.49;81.84;104276.22;5049497;28;20033;-80
2022/03/19 05:17:55;;;;;;;21.90;6.20;;;;;;;5.48;82.16;104277.19;5052619;28;20123;-79
2022/03/19 05:20:21;;;;;;;23.05;6.70;;;;;;;5.44;82.38;104278.22;5044127;28;20079;-78
2022/03/19 05:22:46;;;;;;;18.55;5.50;;;;;;;5.43;82.37;104283.66;5051329;28;20500;-77
2022/03/19 05:25:11;;;;;;;23.30;6.43;;;;;;;5.42;82.20;104282.75;5051294;28;20021;-78
2022/03/19 05:27:37;;;;;;;25.05;7.28;;;;;;;5.38;82.77;104274.97;5052518;28;20066;-79
2022/03/19 05:30:04;;;;;;;22.83;6.53;;;;;;;5.39;82.24;104287.38;5052245;28;20025;-77
2022/03/19 05:32:29;;;;;;;20.80;5.97;;;;;;;5.37;82.50;104279.44;5050406;28;20048;-77
2022/03/19 05:34:55;;;;;;;25.30;6.30;;;;;;;5.32;82.46;104270.75;5051986;28;20029;-80
2022/03/19 05:37:20;;;;;;;20.70;6.63;;;;;;;5.37;82.39;104274.09;5051737;28;20029;-78
2022/03/19 05:39:46;;;;;;;20.60;6.72;;;;;;;5.36;82.41;104280.34;5045522;28;20041;-78
2022/03/19 05:42:11;;;;;;;20.65;6.78;;;;;;;5.34;82.65;104274.19;5053931;28;20483;-78
2022/03/19 05:44:37;;;;;;;18.88;6.53;;;;;;;5.30;82.42;104282.41;5054651;28;20037;-79
2022/03/19 05:47:03;;;;;;;22.00;7.25;;;;;;;5.25;82.84;104275.44;5063170;28;20084;-81
2022/03/19 05:49:29;;;;;;;20.23;6.43;;;;;;;5.24;82.86;104275.53;5026640;28;20041;-80
2022/03/19 05:51:55;;;;;;;24.85;6.68;;;;;;;5.25;82.86;104274.59;5052308;28;20408;-79
2022/03/19 05:54:21;;;;;;;25.98;7.82;;;;;;;5.26;82.85;104287.00;5053689;28;20473;-80
2022/03/19 05:56:46;;;;;;;29.35;8.25;;;;;;;5.29;82.75;104284.19;5054730;28;20028;-79
2022/03/19 05:59:12;;;;;;;20.35;7.20;;;;;;;5.33;82.71;104276.94;5054725;28;20078;-79
2022/03/19 06:01:38;;;;;;;25.40;8.13;;;;;;;5.32;82.70;104281.44;5048454;28;20401;-77
2022/03/19 06:04:03;;;;;;;16.08;6.60;;;;;;;5.34;82.77;104268.84;5054530;28;20039;-77
2022/03/19 06:06:29;;;;;;;23.50;6.35;;;;;;;5.35;82.86;104278.63;5057889;28;20083;-78
2022/03/19 06:08:55;;;;;;;29.75;7.60;;;;;;;5.36;82.51;104282.16;5059784;28;20040;-80
2022/03/19 06:11:20;;;;;;;23.35;7.50;;;;;;;5.40;82.66;104279.31;5057227;28;20132;-79
2022/03/19 06:13:46;;;;;;;25.13;7.65;;;;;;;5.42;82.56;104277.41;5053311;28;20025;-79
2022/03/19 06:16:12;;;;;;;29.17;7.82;;;;;;;5.46;82.30;104279.03;5056670;28;20025;-79
2022/03/19 06:18:37;;;;;;;27.88;7.90;;;;;;;5.44;82.31;104286.25;5052428;28;20029;-80
2022/03/19 06:21:03;;;;;;;20.77;7.80;;;;;;;5.48;82.18;104277.19;5053588;28;20136;-79
2022/03/19 06:23:29;;;;;;;19.25;7.22;;;;;;;5.52;82.11;104285.91;5060556;28;20048;-77
2022/03/19 06:25:55;;;;;;;18.67;7.05;;;;;;;5.54;82.14;104285.88;5058138;28;20416;-79
2022/03/19 06:28:20;;;;;;;21.92;7.65;;;;;;;5.59;82.34;104276.72;5058304;28;20033;-80
2022/03/19 06:30:46;;;;;;;20.52;7.35;;;;;;;5.63;81.78;104290.81;5060015;28;20048;-78
2022/03/19 06:33:12;;;;;;;27.30;8.25;;;;;;;5.77;81.42;104288.44;5054834;28;20037;-78
2022/03/19 06:38:24;;;;;;;27.63;7.40;;;;;;;6.36;79.24;104295.66;5057934;28;20128;-78
2022/03/19 06:40:50;;;;;;;18.48;6.40;;;;;;;6.74;77.55;104276.06;5055772;28;20028;-76
2022/03/19 06:43:15;;;;;;;24.83;6.75;;;;;;;6.94;76.56;104289.38;5062695;28;20029;-75
2022/03/19 06:45:41;;;;;;;22.30;6.95;;;;;;;7.12;75.78;104287.63;5069326;28;20033;-79
2022/03/19 06:48:06;;;;;;;25.20;6.80;;;;;;;7.30;75.33;104285.00;5068282;28;20105;-79
2022/03/19 06:50:31;;;;;;;24.83;6.72;;;;;;;7.54;74.27;104274.88;5066703;28;20043;-78
2022/03/19 06:52:57;;;;;;;22.35;7.40;;;;;;;7.72;73.57;104287.34;5066305;28;20029;-78
2022/03/19 06:55:22;;;;;;;19.65;6.10;;;;;;;7.95;72.71;104278.06;5066574;28;20045;-80
2022/03/19 06:57:47;;;;;;;24.20;6.63;;;;;;;8.24;71.80;104283.72;5050537;28;20445;-78
2022/03/19 07:00:13;;;;;;;26.92;6.85;;;;;;;8.41;70.42;104280.19;5052611;28;20038;-79
2022/03/19 07:02:48;;;;;;;25.67;7.22;;;;;;;8.35;70.83;104279.53;5064841;28;20040;-80
2022/03/19 07:05:21;;;;;;;19.15;6.20;;;;;;;8.31;70.46;104277.06;5058030;28;20025;-79
2022/03/19 07:07:47;;;;;;;30.40;6.55;;;;;;;8.40;70.61;104279.31;5067737;28;20057;-80
2022/03/19 07:10:13;;;;;;;22.08;5.70;;;;;;;8.53;70.34;104279.47;5065238;28;20098;-79
2022/03/19 07:12:46;;;;;;;15.68;5.70;;;;;;;9.02;69.18;104282.97;5065422;28;20032;-77
2022/03/19 07:15:12;;;;;;;29.42;6.13;;;;;;;9.28;67.68;104283.31;5072376;28;20063;-80
2022/03/19 07:17:38;;;;;;;23.33;7.50;;;;;;;9.35;67.71;104279.31;5072307;28;20032;-79
2022/03/19 07:20:04;;;;;;;23.80;5.82;;;;;;;9.23;67.64;104275.50;5064701;28;20448;-78
2022/03/19 07:22:54;;;;;;;17.50;5.72;;;;;;;9.06;68.31;104261.31;5064677;28;20033;-79
2022/03/19 07:25:24;;;;;;;18.38;6.10;;;;;;;9.41;67.80;104283.47;5062893;28;20021;-79
2022/03/19 07:27:51;;;;;;;22.80;5.82;;;;;;;9.88;66.01;104287.84;5066520;28;20047;-80
2022/03/19 07:30:16;;;;;;;14.90;5.68;;;;;;;10.45;64.10;104311.28;5066251;28;20021;-80
2022/03/19 07:32:42;;;;;;;20.10;5.93;;;;;;;10.96;62.52;104276.59;5057672;28;20032;-79
2022/03/19 07:35:09;;;;;;;21.20;6.20;;;;;;;11.08;61.26;104283.84;5065852;28;20056;-80
2022/03/19 07:37:34;;;;;;;13.80;5.28;;;;;;;11.12;60.90;104279.16;5065681;28;20124;-77
2022/03/19 07:40:00;;;;;;;17.42;5.43;;;;;;;11.38;60.40;104288.19;5066136;28;20079;-80
2022/03/19 07:42:25;;;;;;;15.05;5.60;;;;;;;11.87;58.75;104279.47;5067651;28;20228;-79
2022/03/19 07:44:51;;;;;;;24.73;6.00;;;;;;;11.99;57.90;104272.38;5065899;28;20025;-78
2022/03/19 07:47:17;;;;;;;20.10;6.18;;;;;;;12.23;57.34;104269.78;5065729;28;20029;-79
2022/03/19 07:49:43;;;;;;;21.27;5.90;;;;;;;12.10;57.28;104274.31;5066607;28;20431;-81
2022/03/19 07:52:09;;;;;;;18.65;5.10;;;;;;;12.33;57.05;104281.66;5064852;28;20099;-78
2022/03/19 07:54:35;;;;;;;22.70;6.30;;;;;;;12.61;56.16;104285.06;5067255;28;20035;-79
2022/03/19 07:57:00;;;;;;;12.60;5.28;;;;;;;12.66;55.40;104272.06;5065396;28;20028;-81
2022/03/19 07:59:27;;;;;;;16.67;5.57;;;;;;;12.79;55.12;104266.63;5069681;28;20051;-78
2022/03/19 08:01:53;;;;;;;18.70;5.07;;;;;;;12.77;55.17;104268.59;5059188;28;20465;-79
2022/03/19 08:04:18;;;;;;;17.33;5.72;;;;;;;12.94;54.69;104270.91;5063525;28;20029;-81
2022/03/19 08:06:44;;;;;;;16.27;5.50;;;;;;;13.26;54.05;104273.06;5063617;28;20052;-78
2022/03/19 08:09:09;;;;;;;16.13;5.18;;;;;;;13.53;53.12;104270.13;5063396;28;20029;-80
2022/03/19 08:11:35;;;;;;;20.35;6.35;;;;;;;13.60;52.78;104268.66;5062166;28;20025;-80
2022/03/19 08:14:01;;;;;;;21.98;6.38;;;;;;;14.43;50.59;104267.56;5062898;28;20021;-79
2022/03/19 08:16:26;;;;;;;16.23;4.90;;;;;;;14.12;50.88;104270.00;5066468;28;20033;-78
2022/03/19 08:18:51;;;;;;;19.35;5.15;;;;;;;13.88;51.60;104270.09;5071961;28;20033;-79
2022/03/19 08:21:17;;;;;;;16.20;5.20;;;;;;;13.90;51.24;104272.66;5072243;28;20044;-78
2022/03/19 08:23:42;;;;;;;16.50;5.18;;;;;;;14.03;51.03;104276.13;5074707;28;20070;-78
2022/03/19 08:26:08;;;;;;;14.23;4.53;;;;;;;14.13;50.48;104271.72;5073230;28;20033;-80
2022/03/19 08:28:33;;;;;;;13.77;4.55;;;;;;;14.11;50.42;104276.41;5071792;28;20051;-80
2022/03/19 08:30:59;;;;;;;15.60;5.00;;;;;;;14.16;50.18;104271.47;5065263;28;20032;-79
2022/03/19 08:33:25;;;;;;;12.07;4.00;;;;;;;14.56;48.97;104271.03;5063460;28;20040;-79
2022/03/19 08:35:51;;;;;;;15.20;4.80;;;;;;;15.07;47.58;104270.44;5062192;28;20025;-79
2022/03/19 08:41:01;;;;;;;16.27;4.18;;;;;;;15.82;44.99;104273.19;5063504;28;20047;-80
2022/03/19 08:43:26;;;;;;;14.73;4.70;;;;;;;16.00;44.84;104275.16;5065450;28;20029;-78
2022/03/19 08:45:51;;;;;;;11.85;3.80;;;;;;;16.34;43.89;104263.19;5063097;28;20025;-79
2022/03/19 08:48:20;;;;;;;14.10;4.50;;;;;;;16.50;43.11;104263.53;5061426;28;20041;-79
2022/03/19 08:50:46;;;;;;;18.98;4.43;;;;;;;16.32;43.06;104266.03;5062635;28;20057;-79
2022/03/19 08:53:13;;;;;;;12.15;4.15;;;;;;;16.23;43.66;104261.44;5060644;28;20175;-80
2022/03/19 08:55:38;;;;;;;17.17;4.05;;;;;;;16.40;42.89;104266.22;5060319;28;20389;-81
2022/03/19 08:58:03;;;;;;;14.18;4.30;;;;;;;16.36;41.89;104261.19;5061850;28;20039;-78
2022/03/19 09:00:29;;;;;;;13.35;4.45;;;;;;;16.22;42.60;104265.16;5061401;28;20086;-80
2022/03/19 09:02:57;;;;;;;12.85;3.67;;;;;;;16.02;42.23;104258.75;5063621;28;20031;-80
2022/03/19 09:05:23;;;;;;;13.45;4.47;;;;;;;15.59;42.25;104263.31;5059932;28;20094;-80
2022/03/19 09:07:49;;;;;;;12.90;4.15;;;;;;;15.53;41.69;104263.84;5053900;28;20041;-78
2022/03/19 09:10:14;;;;;;;14.45;4.32;;;;;;;15.80;42.14;104255.19;5046869;28;20021;-80
2022/03/19 09:12:40;;;;;;;17.63;4.57;;;;;;;16.07;41.42;104242.91;5057410;28;20052;-79
2022/03/19 09:15:10;;;;;;;14.52;4.55;;;;;;;16.13;41.09;104244.22;5061643;28;20041;-78
2022/03/19 09:17:35;;;;;;;17.95;4.22;;;;;;;16.24;41.09;104242.28;5056847;28;20260;-78
2022/03/19 09:20:01;;;;;;;11.88;3.83;;;;;;;16.70;39.61;104242.69;5050388;28;20056;-77
2022/03/19 09:22:26;;;;;;;14.18;4.50;;;;;;;16.70;38.83;104248.16;5055116;28;20087;-80
2022/03/19 09:24:51;;;;;;;21.83;4.35;;;;;;;16.31;39.03;104248.00;5036317;28;20041;-78
2022/03/19 09:27:17;;;;;;;10.93;3.47;;;;;;;16.15;39.33;104242.22;5053505;28;20080;-77
2022/03/19 09:29:42;;;;;;;12.82;3.90;;;;;;;16.00;39.61;104237.13;5053615;28;20068;-80
2022/03/19 09:32:09;;;;;;;12.73;3.75;;;;;;;15.51;39.62;104244.09;5060439;28;20276;-79
2022/03/19 09:34:35;;;;;;;14.63;3.70;;;;;;;15.80;39.92;104243.47;5055575;28;20041;-78
2022/03/19 09:37:01;;;;;;;14.88;3.67;;;;;;;16.05;38.38;104235.88;5061638;28;20040;-79
2022/03/19 09:39:26;;;;;;;14.55;4.05;;;;;;;15.46;38.55;104256.34;5066561;28;20029;-77
2022/03/19 09:41:53;;;;;;;15.07;3.30;;;;;;;14.87;40.13;104244.09;5057838;28;20043;-77
2022/03/19 09:44:19;;;;;;;10.48;3.38;;;;;;;14.98;39.48;104240.50;5068244;28;20025;-77
2022/03/19 09:46:46;;;;;;;14.15;3.45;;;;;;;14.82;39.14;104236.34;5061916;28;20033;-80
2022/03/19 09:49:12;;;;;;;8.85;3.63;;;;;;;14.70;39.50;104249.06;5060545;28;20100;-78
2022/03/19 09:51:40;;;;;;;14.45;3.67;;;;;;;14.70;40.54;104224.69;5055266;28;20089;-77
2022/03/19 09:54:06;;;;;;;11.18;3.22;;;;;;;14.76;39.64;104215.16;5064083;28;20041;-77
2022/03/19 09:56:32;;;;;;;8.98;3.40;;;;;;;14.82;40.00;104213.78;5064200;28;20041;-78
2022/03/19 09:58:57;;;;;;;9.75;3.53;;;;;;;15.28;38.35;104204.50;5055735;28;20063;-78
2022/03/19 10:01:25;;;;;;;11.57;3.25;;;;;;;15.52;38.16;104210.53;5062339;28;20100;-79
2022/03/19 10:03:50;;;;;;;8.95;3.17;;;;;;;15.53;36.81;104198.69;5067601;28;20033;-78
2022/03/19 10:09:00;;;;;;;11.98;3.30;;;;;;;14.87;37.56;104200.72;5055812;28;20060;-77
2022/03/19 10:11:34;;;;;;;9.98;2.95;;;;;;;14.94;37.70;104191.06;5063172;28;20123;-76
2022/03/19 10:14:04;;;;;;;12.48;3.55;;;;;;;15.25;36.70;104199.34;5065957;28;20088;-79
2022/03/19 10:16:29;;;;;;;9.50;3.38;;;;;;;15.60;37.16;104188.13;5062496;28;20536;-80
2022/03/19 10:19:00;;;;;;;10.00;2.88;;;;;;;15.78;35.09;104175.69;5068146;28;20021;-79
2022/03/19 10:21:27;;;;;;;12.13;3.08;;;;;;;15.70;34.56;104178.22;5053074;28;20028;-79
2022/03/19 10:23:53;;;;;;;14.02;3.20;;;;;;;15.62;34.67;104169.00;5050727;28;20088;-77
2022/03/19 10:26:28;;;;;;;8.95;2.92;;;;;;;15.09;33.62;104172.66;5048831;28;20036;-78
2022/03/19 10:29:00;;;;;;;9.50;2.80;;;;;;;14.57;34.77;104167.03;5045127;28;20033;-79
2022/03/19 10:31:31;;;;;;;8.18;2.60;;;;;;;14.28;35.58;104172.97;5045539;28;20048;-77
2022/03/19 10:33:56;;;;;;;10.95;3.47;;;;;;;14.17;36.61;104167.56;5064107;28;20044;-79
2022/03/19 10:36:29;;;;;;;8.82;2.67;;;;;;;14.25;34.70;104159.69;5063586;28;20091;-77
2022/03/19 10:38:55;;;;;;;12.40;3.30;;;;;;;14.24;34.50;104157.09;5062626;28;20051;-76
2022/03/19 10:41:20;;;;;;;7.63;2.38;;;;;;;14.38;32.55;104162.25;5062195;28;20028;-78
2022/03/19 10:43:48;;;;;;;9.18;2.85;;;;;;;14.69;31.62;104154.28;5063245;28;20088;-79
2022/03/19 10:46:16;;;;;;;8.48;2.78;;;;;;;14.57;31.86;104148.06;5059722;28;20130;-79
2022/03/19 10:48:41;;;;;;;9.98;2.55;;;;;;;14.36;32.53;104152.53;5055730;28;20037;-79
2022/03/19 10:51:11;;;;;;;10.63;2.85;;;;;;;14.12;33.53;104142.69;5052023;28;20040;-81
2022/03/19 10:53:36;;;;;;;6.93;2.67;;;;;;;14.34;33.49;104130.09;5058424;28;20036;-79
2022/03/19 10:56:03;;;;;;;12.38;3.20;;;;;;;14.38;33.40;104128.88;5041274;28;20116;-81
2022/03/19 10:58:28;;;;;;;12.57;3.35;;;;;;;14.82;32.89;104111.59;5047628;28;20084;-78
2022/03/19 11:00:54;;;;;;;12.45;3.03;;;;;;;14.87;32.44;104112.06;5058976;28;20775;-80
2022/03/19 11:03:27;;;;;;;11.35;2.75;;;;;;;14.98;32.19;104105.75;5062989;28;20515;-79
2022/03/19 11:06:01;;;;;;;10.90;2.90;;;;;;;14.54;32.61;104123.94;5061517;28;20028;-80
2022/03/19 11:08:28;;;;;;;11.32;2.63;;;;;;;14.55;32.54;104109.38;5056487;28;20045;-78
2022/03/19 11:10:57;;;;;;;13.02;3.15;;;;;;;14.48;32.76;104102.72;5062029;28;20032;-79
2022/03/19 11:13:25;;;;;;;5.88;2.35;;;;;;;14.62;33.08;104101.59;5061942;28;20033;-79
2022/03/19 11:15:52;;;;;;;10.18;3.35;;;;;;;15.05;31.71;104101.50;5051538;28;20045;-78
2022/03/19 11:18:19;;;;;;;12.52;3.20;;;;;;;15.18;31.71;104100.47;5053134;28;20040;-81
2022/03/19 11:20:45;;;;;;;8.27;2.67;;;;;;;15.06;31.26;104089.69;5060581;28;20025;-80
2022/03/19 11:23:11;;;;;;;15.25;2.88;;;;;;;15.76;31.03;104084.50;5054224;28;20017;-80
2022/03/19 11:25:43;;;;;;;15.23;2.80;;;;;;;16.36;30.12;104077.22;5046077;28;20100;-79
2022/03/19 11:28:10;;;;;;;7.45;2.53;;;;;;;16.49;28.06;104086.97;5045719;28;20476;-80
2022/03/19 11:30:38;;;;;;;9.65;3.10;;;;;;;16.48;28.19;104079.78;5050722;28;20040;-79
2022/03/19 11:33:15;;;;;;;8.48;2.78;;;;;;;16.89;27.33;104075.94;5066578;28;20040;-80
2022/03/19 11:35:42;;;;;;;9.10;2.35;;;;;;;16.96;26.64;104068.94;5063478;28;20036;-79
2022/03/19 11:38:17;;;;;;;8.55;2.30;;;;;;;17.17;25.63;104066.03;5063245;28;20021;-78
2022/03/19 11:40:47;;;;;;;7.75;2.22;;;;;;;17.40;26.52;104060.19;5055572;28;20112;-80